KSNS/SNS METAR and TAF weather

Enter ICAO airport designator
Station Type Date Time Source
KSNS METAR 2020/03/28 13:53 UTC NOAA

KSNS 281353Z 16007KT 10SM SCT070 OVC090 07/04 A3021 RMK AO2 SLP239 T00720044


Station Type Date Time Source
KSNS Decoded METAR 2020/03/28 13:53 UTC NOAA

SALINAS MUNICIPAL AIRPORT, CA, United States (KSNS) 36-40N 121-36W 30M
Mar 28, 2020 - 09:53 AM EDT / 2020.03.28 1353 UTC
Wind: from the SSE (160 degrees) at 8 MPH (7 KT):0
Visibility: 10 mile(s):0
Sky conditions: overcast
Temperature: 45.0 F (7.2 C)
Dew Point: 39.9 F (4.4 C)
Relative Humidity: 82%
Pressure (altimeter): 30.21 in. Hg (1023 hPa)
ob: KSNS 281353Z 16007KT 10SM SCT070 OVC090 07/04 A3021 RMK AO2 SLP239 T00720044
cycle: 14

Station Type Date Time Source
KSNS TAF 2020/03/28 12:33 UTC NOAA

TAF KSNS 281131Z 2812/2912 VRB04KT P6SM BKN035
FM281400 12006KT P6SM VCSH OVC035
FM281800 13008KT P6SM -SHRA OVC025
FM282200 26008KT P6SM -SHRA OVC020
FM290300 25005KT P6SM VCSH OVC020

Example: see airport list